createdAt,value
2018-04-27T00:01:49.022Z,8.96
2018-04-27T00:04:16.629Z,9.03
2018-04-27T00:06:44.203Z,9.03
2018-04-27T00:09:11.812Z,9.07
2018-04-27T00:11:39.474Z,9.09
2018-04-27T00:14:07.099Z,9.03
2018-04-27T00:16:34.691Z,9.00
2018-04-27T00:19:02.278Z,8.94
2018-04-27T00:21:29.882Z,8.89
2018-04-27T00:23:57.483Z,8.95
2018-04-27T00:26:25.107Z,8.95
2018-04-27T00:28:52.733Z,8.89
2018-04-27T00:31:20.592Z,8.93
2018-04-27T00:33:48.187Z,8.94
2018-04-27T00:36:15.770Z,8.90
2018-04-27T00:38:43.373Z,8.95
2018-04-27T00:41:10.972Z,9.00
2018-04-27T00:43:38.595Z,9.01
2018-04-27T00:46:06.222Z,9.00
2018-04-27T00:48:34.027Z,9.03
2018-04-27T00:51:01.611Z,9.01
2018-04-27T00:53:29.201Z,9.02
2018-04-27T00:55:56.811Z,8.94
2018-04-27T00:58:24.407Z,8.97
2018-04-27T01:00:52.098Z,8.95
2018-04-27T01:03:19.779Z,9.03
2018-04-27T01:05:47.411Z,9.03
2018-04-27T01:08:14.999Z,9.06
2018-04-27T01:10:42.589Z,9.08
2018-04-27T01:13:10.213Z,9.06
2018-04-27T01:15:37.795Z,9.05
2018-04-27T01:18:05.406Z,8.94
2018-04-27T01:20:32.996Z,9.00
2018-04-27T01:23:00.696Z,8.99
2018-04-27T01:25:28.284Z,8.99
2018-04-27T01:27:55.875Z,8.99
2018-04-27T01:30:23.478Z,8.90
2018-04-27T01:32:51.063Z,8.93
2018-04-27T01:35:18.678Z,8.96
2018-04-27T01:37:46.282Z,8.97
2018-04-27T01:42:47.935Z,8.87
2018-04-27T01:45:15.899Z,8.80
2018-04-27T01:47:43.504Z,8.75
2018-04-27T01:50:11.091Z,8.75
2018-04-27T01:52:38.707Z,8.66
2018-04-27T01:55:06.300Z,8.64
2018-04-27T01:57:33.916Z,8.50
2018-04-27T02:00:01.507Z,8.55
2018-04-27T02:02:29.441Z,8.52
2018-04-27T02:04:57.027Z,8.48
2018-04-27T02:07:24.621Z,8.46
2018-04-27T02:09:52.253Z,8.50
2018-04-27T02:12:19.836Z,8.51
2018-04-27T02:14:47.438Z,8.52
2018-04-27T02:17:15.078Z,8.47
2018-04-27T02:19:42.869Z,8.50
2018-04-27T02:22:10.457Z,8.52
2018-04-27T02:24:38.052Z,8.51
2018-04-27T02:27:05.661Z,8.48
2018-04-27T02:29:33.241Z,8.45
2018-04-27T02:32:00.855Z,8.41
2018-04-27T02:34:28.446Z,8.36
2018-04-27T02:36:56.201Z,8.22
2018-04-27T02:39:23.793Z,8.23
2018-04-27T02:41:51.477Z,8.22
2018-04-27T02:44:19.095Z,8.22
2018-04-27T02:46:46.686Z,8.25
2018-04-27T02:49:14.299Z,8.27
2018-04-27T02:51:41.899Z,8.13
2018-04-27T02:54:09.857Z,8.03
2018-04-27T02:56:37.442Z,8.09
2018-04-27T02:59:05.019Z,8.11
2018-04-27T03:01:32.638Z,8.07
2018-04-27T03:04:00.240Z,8.04
2018-04-27T03:06:27.856Z,8.03
2018-04-27T03:08:55.443Z,7.97
2018-04-27T03:11:23.070Z,7.96
2018-04-27T03:13:50.662Z,8.02
2018-04-27T03:16:18.253Z,7.97
2018-04-27T03:18:45.858Z,8.01
2018-04-27T03:21:13.489Z,8.04
2018-04-27T03:23:41.126Z,7.97
2018-04-27T03:26:08.723Z,7.92
2018-04-27T03:28:36.610Z,7.91
2018-04-27T03:31:04.194Z,7.92
2018-04-27T03:33:31.788Z,7.80
2018-04-27T03:35:59.406Z,7.81
2018-04-27T03:38:26.987Z,7.83
2018-04-27T03:40:54.722Z,7.80
2018-04-27T03:43:22.314Z,7.70
2018-04-27T03:45:49.898Z,7.68
2018-04-27T03:48:17.499Z,7.66
2018-04-27T03:50:45.103Z,7.64
2018-04-27T03:53:12.730Z,7.68
2018-04-27T03:55:40.395Z,7.70
2018-04-27T03:58:08.000Z,7.76
2018-04-27T04:00:47.281Z,7.71
2018-04-27T04:03:26.646Z,7.65
2018-04-27T04:05:54.263Z,7.50
2018-04-27T04:08:21.854Z,7.51
2018-04-27T04:10:49.505Z,7.33
2018-04-27T04:13:17.118Z,7.36
2018-04-27T04:15:44.895Z,7.29
2018-04-27T04:18:12.487Z,7.32
2018-04-27T04:20:40.077Z,7.36
2018-04-27T04:23:07.687Z,7.39
2018-04-27T04:25:35.269Z,7.33
2018-04-27T04:28:02.896Z,7.40
2018-04-27T04:30:30.501Z,7.33
2018-04-27T04:32:58.297Z,7.30
2018-04-27T04:35:25.885Z,7.36
2018-04-27T04:37:53.581Z,7.41
2018-04-27T04:40:21.195Z,7.44
2018-04-27T04:42:48.790Z,7.52
2018-04-27T04:45:16.398Z,7.56
2018-04-27T04:47:43.982Z,7.60
2018-04-27T04:50:11.894Z,7.58
2018-04-27T04:52:39.499Z,7.60
2018-04-27T04:55:07.114Z,7.72
2018-04-27T04:57:34.721Z,7.78
2018-04-27T05:00:02.339Z,7.81
2018-04-27T05:02:29.956Z,7.74
2018-04-27T05:04:57.546Z,7.77
2018-04-27T05:07:25.126Z,7.89
2018-04-27T05:09:52.757Z,7.87
2018-04-27T05:12:20.347Z,7.89
2018-04-27T05:14:48.205Z,7.93
2018-04-27T05:17:15.800Z,7.96
2018-04-27T05:19:43.391Z,8.00
2018-04-27T05:22:11.003Z,8.07
2018-04-27T05:24:38.616Z,8.02
2018-04-27T05:27:06.225Z,8.13
2018-04-27T05:29:33.855Z,8.19
2018-04-27T05:32:02.058Z,8.25
2018-04-27T05:34:29.650Z,8.33
2018-04-27T05:36:57.250Z,8.38
2018-04-27T05:39:24.870Z,8.47
2018-04-27T05:41:52.468Z,8.50
2018-04-27T05:44:20.091Z,8.62
2018-04-27T05:46:47.716Z,8.60
2018-04-27T05:49:15.382Z,8.68
2018-04-27T05:51:42.978Z,8.77
2018-04-27T05:54:10.576Z,8.81
2018-04-27T05:56:38.225Z,8.93
2018-04-27T05:59:05.835Z,8.86
2018-04-27T06:01:33.449Z,8.97
2018-04-27T06:04:12.847Z,9.10
2018-04-27T06:06:40.482Z,9.11
2018-04-27T06:09:08.092Z,9.17
2018-04-27T06:11:35.743Z,9.19
2018-04-27T06:14:03.379Z,9.39
2018-04-27T06:16:31.012Z,9.38
2018-04-27T06:18:59.046Z,9.53
2018-04-27T06:21:26.648Z,9.67
2018-04-27T06:23:54.258Z,9.87
2018-04-27T06:26:21.858Z,9.86
2018-04-27T06:28:49.475Z,9.91
2018-04-27T06:31:17.107Z,10.05
2018-04-27T06:33:44.714Z,10.16
2018-04-27T06:36:12.323Z,10.13
2018-04-27T06:38:39.931Z,10.29
2018-04-27T06:41:07.772Z,10.55
2018-04-27T06:43:35.370Z,10.64
2018-04-27T06:46:02.982Z,10.70
2018-04-27T06:48:30.621Z,10.93
2018-04-27T06:50:58.235Z,11.00
2018-04-27T06:53:25.881Z,11.08
2018-04-27T06:55:53.721Z,11.29
2018-04-27T06:58:21.531Z,11.28
2018-04-27T07:00:49.132Z,11.47
2018-04-27T07:03:16.717Z,11.65
2018-04-27T07:05:44.360Z,11.55
2018-04-27T07:08:11.969Z,11.78
2018-04-27T07:10:39.586Z,12.02
2018-04-27T07:13:07.200Z,12.00
2018-04-27T07:15:35.004Z,12.17
2018-04-27T07:18:02.647Z,12.32
2018-04-27T07:20:30.243Z,12.47
2018-04-27T07:22:57.929Z,12.39
2018-04-27T07:25:25.522Z,12.48
2018-04-27T07:27:53.150Z,12.59
2018-04-27T07:30:20.745Z,12.65
2018-04-27T07:32:48.575Z,12.77
2018-04-27T07:35:16.163Z,12.94
2018-04-27T07:37:43.791Z,12.98
2018-04-27T07:40:11.402Z,13.12
2018-04-27T07:42:39.017Z,13.37
2018-04-27T07:45:06.670Z,13.55
2018-04-27T07:47:34.303Z,13.55
2018-04-27T07:50:02.102Z,13.73
2018-04-27T07:52:29.692Z,13.89
2018-04-27T07:54:57.336Z,14.02
2018-04-27T07:57:24.966Z,14.11
2018-04-27T07:59:52.563Z,14.34
2018-04-27T08:02:20.199Z,14.49
2018-04-27T08:04:47.821Z,14.57
2018-04-27T08:07:15.910Z,14.55
2018-04-27T08:09:44.922Z,14.78
2018-04-27T08:12:15.941Z,14.84
2018-04-27T08:14:43.633Z,14.83
2018-04-27T08:17:11.231Z,14.82
2018-04-27T08:19:38.841Z,14.87
2018-04-27T08:22:06.428Z,14.97
2018-04-27T08:24:36.027Z,15.00
2018-04-27T08:27:03.552Z,15.12
2018-04-27T08:29:31.171Z,15.19
2018-04-27T08:31:58.847Z,15.08
2018-04-27T08:34:26.429Z,15.27
2018-04-27T08:36:54.051Z,15.36
2018-04-27T08:39:21.966Z,15.36
2018-04-27T08:41:49.812Z,15.48
2018-04-27T08:44:17.417Z,15.68
2018-04-27T08:46:45.116Z,15.77
2018-04-27T08:49:14.256Z,15.76
2018-04-27T08:51:42.108Z,15.81
2018-04-27T08:54:09.733Z,15.86
2018-04-27T08:56:37.321Z,15.86
2018-04-27T08:59:04.974Z,16.07
2018-04-27T09:01:32.578Z,16.16
2018-04-27T09:04:00.200Z,16.07
2018-04-27T09:06:27.912Z,15.98
2018-04-27T09:08:56.447Z,16.09
2018-04-27T09:11:24.163Z,16.08
2018-04-27T09:13:51.767Z,16.17
2018-04-27T09:16:19.933Z,16.30
2018-04-27T09:18:47.538Z,16.31
2018-04-27T09:21:15.158Z,16.48
2018-04-27T09:23:42.923Z,16.62
2018-04-27T09:26:10.872Z,16.60
2018-04-27T09:28:38.490Z,16.66
2018-04-27T09:31:06.219Z,16.68
2018-04-27T09:33:34.228Z,16.71
2018-04-27T09:36:01.882Z,16.73
2018-04-27T09:38:29.485Z,16.82
2018-04-27T09:40:57.485Z,16.98
2018-04-27T09:43:25.027Z,17.00
2018-04-27T09:45:52.705Z,17.03
2018-04-27T09:48:20.297Z,17.03
2018-04-27T09:50:47.959Z,17.15
2018-04-27T09:53:15.555Z,17.21
2018-04-27T09:55:43.138Z,17.28
2018-04-27T09:58:10.749Z,17.31
2018-04-27T10:00:38.352Z,17.41
2018-04-27T10:03:05.970Z,17.48
2018-04-27T10:05:33.558Z,17.44
2018-04-27T10:08:01.456Z,17.53
2018-04-27T10:10:29.043Z,17.50
2018-04-27T10:12:56.643Z,17.62
2018-04-27T10:15:24.254Z,17.70
2018-04-27T10:17:51.842Z,17.53
2018-04-27T10:20:19.450Z,17.71
2018-04-27T10:22:49.181Z,17.79
2018-04-27T10:25:17.665Z,17.85
2018-04-27T10:27:45.266Z,17.79
2018-04-27T10:30:12.856Z,17.81
2018-04-27T10:32:40.479Z,17.75
2018-04-27T10:35:08.061Z,17.80
2018-04-27T10:37:35.673Z,17.77
2018-04-27T10:40:03.772Z,17.80
2018-04-27T10:42:31.709Z,17.87
2018-04-27T10:44:59.316Z,17.82
2018-04-27T10:47:26.934Z,17.92
2018-04-27T10:49:54.582Z,18.13
2018-04-27T10:52:22.183Z,18.13
2018-04-27T10:54:49.811Z,18.23
2018-04-27T10:57:17.543Z,18.28
2018-04-27T10:59:45.450Z,18.38
2018-04-27T11:02:13.043Z,18.33
2018-04-27T11:04:40.646Z,18.27
2018-04-27T11:07:08.265Z,18.30
2018-04-27T11:09:35.846Z,18.26
2018-04-27T11:12:03.473Z,18.23
2018-04-27T11:14:31.062Z,18.36
2018-04-27T11:16:59.000Z,18.51
2018-04-27T11:19:26.502Z,18.61
2018-04-27T11:21:54.143Z,18.74
2018-04-27T11:24:21.754Z,18.64
2018-04-27T11:26:49.345Z,18.67
2018-04-27T11:29:17.084Z,18.62
2018-04-27T11:31:44.669Z,18.65
2018-04-27T11:34:12.733Z,18.75
2018-04-27T11:36:40.341Z,18.88
2018-04-27T11:39:07.931Z,18.91
2018-04-27T11:41:35.538Z,19.04
2018-04-27T11:44:03.174Z,19.22
2018-04-27T11:46:30.781Z,19.43
2018-04-27T11:48:58.385Z,19.55
2018-04-27T11:51:26.109Z,19.75
2018-04-27T11:53:53.701Z,19.83
2018-04-27T11:56:21.292Z,19.89
2018-04-27T11:58:48.922Z,19.85
2018-04-27T12:01:16.614Z,19.96
2018-04-27T12:03:44.316Z,20.11
2018-04-27T12:06:11.862Z,20.52
2018-04-27T12:08:39.505Z,20.76
2018-04-27T12:11:07.101Z,20.83
2018-04-27T12:13:37.572Z,20.94
2018-04-27T12:16:05.430Z,20.93
2018-04-27T12:18:42.460Z,21.07
2018-04-27T12:21:10.946Z,20.99
2018-04-27T12:23:38.960Z,20.82
2018-04-27T12:26:07.075Z,20.93
2018-04-27T12:28:34.950Z,21.09
2018-04-27T12:31:02.602Z,20.97
2018-04-27T12:33:30.211Z,20.57
2018-04-27T12:35:57.831Z,20.68
2018-04-27T12:38:25.679Z,20.62
2018-04-27T12:40:53.274Z,20.81
2018-04-27T12:43:21.326Z,20.98
2018-04-27T12:45:49.641Z,20.96
2018-04-27T12:48:17.693Z,21.27
2018-04-27T12:50:46.772Z,21.60
2018-04-27T12:53:14.844Z,22.41
2018-04-27T12:55:42.761Z,23.19
2018-04-27T12:58:10.968Z,23.34
2018-04-27T13:00:38.961Z,23.82
2018-04-27T13:03:06.832Z,24.53
2018-04-27T13:05:34.694Z,25.53
2018-04-27T13:08:02.784Z,26.66
2018-04-27T13:10:30.741Z,27.68
2018-04-27T13:12:58.613Z,27.66
2018-04-27T13:15:26.783Z,28.44
2018-04-27T13:17:55.200Z,28.73
2018-04-27T13:20:23.131Z,28.27
2018-04-27T13:22:50.994Z,28.71
2018-04-27T13:25:18.831Z,28.39
2018-04-27T13:27:46.875Z,28.51
2018-04-27T13:30:15.269Z,29.54
2018-04-27T13:32:43.183Z,30.24
2018-04-27T13:35:11.148Z,30.18
2018-04-27T13:37:39.133Z,30.41
2018-04-27T13:40:07.805Z,30.97
2018-04-27T13:42:35.682Z,32.66
2018-04-27T13:45:04.055Z,31.71
2018-04-27T13:47:31.885Z,31.21
2018-04-27T13:49:59.736Z,29.67
2018-04-27T13:52:27.557Z,29.01
2018-04-27T13:54:55.529Z,29.01
2018-04-27T13:57:23.560Z,26.72
2018-04-27T13:59:51.584Z,26.34
2018-04-27T14:02:19.550Z,25.40
2018-04-27T14:04:47.419Z,25.05
2018-04-27T14:07:15.381Z,24.05
2018-04-27T14:09:45.496Z,24.39
2018-04-27T14:12:13.370Z,24.19
2018-04-27T14:14:41.072Z,23.98
2018-04-27T14:17:08.690Z,23.80
2018-04-27T14:19:36.617Z,23.27
2018-04-27T14:22:04.283Z,22.95
2018-04-27T14:24:32.026Z,22.81
2018-04-27T14:26:59.667Z,22.37
2018-04-27T14:29:27.255Z,22.24
2018-04-27T14:31:55.168Z,22.21
2018-04-27T14:34:22.778Z,22.18
2018-04-27T14:36:50.390Z,22.01
2018-04-27T14:39:18.000Z,21.79
2018-04-27T14:41:45.691Z,21.82
2018-04-27T14:44:13.837Z,21.71
2018-04-27T14:46:41.648Z,21.54
2018-04-27T14:49:09.298Z,21.57
2018-04-27T14:51:37.166Z,21.50
2018-04-27T14:54:04.946Z,21.62
2018-04-27T14:56:32.542Z,21.63
2018-04-27T14:59:00.616Z,21.66
2018-04-27T15:01:28.223Z,21.54
2018-04-27T15:03:55.812Z,21.46
2018-04-27T15:06:23.635Z,21.57
2018-04-27T15:08:51.454Z,21.62
2018-04-27T15:11:19.427Z,21.66
2018-04-27T15:13:47.409Z,21.73
2018-04-27T15:16:15.251Z,21.71
2018-04-27T15:18:43.229Z,21.88
2018-04-27T15:21:10.838Z,21.78
2018-04-27T15:23:38.456Z,21.90
2018-04-27T15:26:06.262Z,21.84
2018-04-27T15:28:33.918Z,21.72
2018-04-27T15:31:01.508Z,21.93
2018-04-27T15:33:29.097Z,21.99
2018-04-27T15:35:56.726Z,22.08
2018-04-27T15:38:24.513Z,22.05
2018-04-27T15:40:52.491Z,22.03
2018-04-27T15:43:20.416Z,22.01
2018-04-27T15:45:48.213Z,22.04
2018-04-27T15:48:15.822Z,22.06
2018-04-27T15:50:43.426Z,22.03
2018-04-27T15:53:11.046Z,22.03
2018-04-27T15:55:38.638Z,21.98
2018-04-27T15:58:06.247Z,22.09
2018-04-27T16:00:33.844Z,22.14
2018-04-27T16:03:01.633Z,22.15
2018-04-27T16:05:29.229Z,22.13
2018-04-27T16:07:56.871Z,21.95
2018-04-27T16:10:24.530Z,21.83
2018-04-27T16:12:52.139Z,21.67
2018-04-27T16:15:19.772Z,21.70
2018-04-27T16:17:47.416Z,21.67
2018-04-27T16:20:15.057Z,21.56
2018-04-27T16:22:42.650Z,21.50
2018-04-27T16:25:10.269Z,21.42
2018-04-27T16:27:37.860Z,21.28
2018-04-27T16:30:05.728Z,21.24
2018-04-27T16:32:33.318Z,21.23
2018-04-27T16:35:00.926Z,21.24
2018-04-27T16:37:28.539Z,21.29
2018-04-27T16:39:56.187Z,21.26
2018-04-27T16:42:23.806Z,21.13
2018-04-27T16:44:51.395Z,21.12
2018-04-27T16:47:19.266Z,21.08
2018-04-27T16:49:46.853Z,21.00
2018-04-27T16:52:14.445Z,20.94
2018-04-27T16:54:42.056Z,20.96
2018-04-27T16:57:09.652Z,20.94
2018-04-27T16:59:37.282Z,21.01
2018-04-27T17:02:04.881Z,20.89
2018-04-27T17:04:32.701Z,20.81
2018-04-27T17:07:00.323Z,20.78
2018-04-27T17:09:27.931Z,20.85
2018-04-27T17:11:55.574Z,20.97
2018-04-27T17:14:23.183Z,21.08
2018-04-27T17:16:50.816Z,21.27
2018-04-27T17:19:18.469Z,21.65
2018-04-27T17:21:46.201Z,21.93
2018-04-27T17:24:13.794Z,22.26
2018-04-27T17:26:41.393Z,22.17
2018-04-27T17:29:09.004Z,21.88
2018-04-27T17:31:36.625Z,21.76
2018-04-27T17:34:04.265Z,21.46
2018-04-27T17:36:31.859Z,21.15
2018-04-27T17:38:59.531Z,20.99
2018-04-27T17:41:27.124Z,20.84
2018-04-27T17:43:54.731Z,20.71
2018-04-27T17:46:22.371Z,20.55
2018-04-27T17:48:50.013Z,20.50
2018-04-27T17:51:17.673Z,20.38
2018-04-27T17:53:45.266Z,20.28
2018-04-27T17:56:13.300Z,20.23
2018-04-27T17:58:40.890Z,20.15
2018-04-27T18:01:09.311Z,19.98
2018-04-27T18:03:36.935Z,19.91
2018-04-27T18:06:04.526Z,19.85
2018-04-27T18:08:32.322Z,19.80
2018-04-27T18:10:59.936Z,19.77
2018-04-27T18:13:27.532Z,19.71
2018-04-27T18:15:55.154Z,19.75
2018-04-27T18:18:22.745Z,19.49
2018-04-27T18:20:50.619Z,19.39
2018-04-27T18:23:18.221Z,19.28
2018-04-27T18:25:45.834Z,19.18
2018-04-27T18:28:13.479Z,19.10
2018-04-27T18:30:41.075Z,18.97
2018-04-27T18:33:08.910Z,18.89
2018-04-27T18:35:36.731Z,18.84
2018-04-27T18:38:04.338Z,18.83
2018-04-27T18:40:31.956Z,18.76
2018-04-27T18:42:59.575Z,18.64
2018-04-27T18:45:27.217Z,18.59
2018-04-27T18:47:54.814Z,18.47
2018-04-27T18:50:22.594Z,18.46
2018-04-27T18:52:50.191Z,18.36
2018-04-27T18:55:17.793Z,18.28
2018-04-27T18:57:45.409Z,18.18
2018-04-27T19:00:12.998Z,18.09
2018-04-27T19:02:40.664Z,18.07
2018-04-27T19:05:09.079Z,17.80
2018-04-27T19:07:36.674Z,17.84
2018-04-27T19:10:04.309Z,17.93
2018-04-27T19:12:31.898Z,17.85
2018-04-27T19:14:59.519Z,17.76
2018-04-27T19:17:29.938Z,17.59
2018-04-27T19:19:57.643Z,17.49
2018-04-27T19:22:26.919Z,17.51
2018-04-27T19:24:54.585Z,17.48
2018-04-27T19:27:22.177Z,17.52
2018-04-27T19:29:49.791Z,17.46
2018-04-27T19:32:17.405Z,17.51
2018-04-27T19:34:45.077Z,17.47
2018-04-27T19:37:12.641Z,17.42
2018-04-27T19:39:40.266Z,17.36
2018-04-27T19:42:07.875Z,17.38
2018-04-27T19:44:35.879Z,17.33
2018-04-27T19:47:03.486Z,17.27
2018-04-27T19:49:31.102Z,17.23
2018-04-27T19:51:58.710Z,17.22
2018-04-27T19:54:26.323Z,17.16
2018-04-27T19:56:55.495Z,17.10
2018-04-27T19:59:23.083Z,17.10
2018-04-27T20:01:50.710Z,17.07
2018-04-27T20:04:18.302Z,17.05
2018-04-27T20:06:47.032Z,17.15
2018-04-27T20:09:15.375Z,17.03
2018-04-27T20:11:43.193Z,17.00
2018-04-27T20:14:10.793Z,17.02
2018-04-27T20:16:40.256Z,16.99
2018-04-27T20:19:08.538Z,16.93
2018-04-27T20:21:36.136Z,16.90
2018-04-27T20:24:03.764Z,16.84
2018-04-27T20:26:31.358Z,16.77
2018-04-27T20:28:58.969Z,16.76
2018-04-27T20:31:26.555Z,16.70
2018-04-27T20:33:54.277Z,16.77
2018-04-27T20:36:21.974Z,16.87
2018-04-27T20:38:49.567Z,16.80
2018-04-27T20:41:19.011Z,16.72
2018-04-27T20:43:48.252Z,16.78
2018-04-27T20:46:17.900Z,16.79
2018-04-27T20:48:45.635Z,16.80
2018-04-27T20:51:13.530Z,16.73
2018-04-27T20:53:41.863Z,16.78
2018-04-27T20:56:09.457Z,16.64
2018-04-27T20:58:37.075Z,16.61
2018-04-27T21:01:04.669Z,16.60
2018-04-27T21:03:32.282Z,16.55
2018-04-27T21:06:00.841Z,16.58
2018-04-27T21:08:28.451Z,16.63
2018-04-27T21:10:56.047Z,16.50
2018-04-27T21:13:24.018Z,16.35
2018-04-27T21:15:51.615Z,16.32
2018-04-27T21:18:21.120Z,16.22
2018-04-27T21:20:48.742Z,16.24
2018-04-27T21:23:16.359Z,16.18
2018-04-27T21:25:43.975Z,16.23
2018-04-27T21:28:14.274Z,16.26
2018-04-27T21:30:44.578Z,16.28
2018-04-27T21:33:12.217Z,16.37
2018-04-27T21:35:49.652Z,16.29
2018-04-27T21:41:50.975Z,16.15
2018-04-27T21:44:20.063Z,16.10
2018-04-27T21:46:48.333Z,16.16
2018-04-27T21:49:16.905Z,16.37
2018-04-27T21:51:45.282Z,16.24
2018-04-27T21:54:14.602Z,16.16
2018-04-27T21:59:45.399Z,16.11
2018-04-27T22:02:19.773Z,16.16
2018-04-27T22:04:47.395Z,16.18
2018-04-27T22:07:19.751Z,16.19
2018-04-27T22:09:58.110Z,16.14
2018-04-27T22:12:25.728Z,16.10
2018-04-27T22:14:53.342Z,16.08
2018-04-27T22:17:29.515Z,16.11
2018-04-27T22:19:59.951Z,16.24
2018-04-27T22:22:27.544Z,16.12
2018-04-27T22:25:05.881Z,15.98
2018-04-27T22:27:33.502Z,15.99
2018-04-27T22:30:02.643Z,16.01
2018-04-27T22:32:38.873Z,15.92
2018-04-27T22:35:38.943Z,15.92
2018-04-27T22:38:06.563Z,15.97
2018-04-27T22:40:39.752Z,15.95
2018-04-27T22:43:11.228Z,15.85
2018-04-27T22:45:38.842Z,15.87
2018-04-27T22:48:08.866Z,15.84
2018-04-27T22:50:36.465Z,15.82
2018-04-27T22:53:04.754Z,15.70
2018-04-27T22:55:33.017Z,15.62
2018-04-27T22:58:01.315Z,15.56
2018-04-27T23:03:27.874Z,15.49
2018-04-27T23:05:55.476Z,15.43
2018-04-27T23:08:23.100Z,15.62
2018-04-27T23:14:12.866Z,15.49
2018-04-27T23:16:46.266Z,15.52
2018-04-27T23:19:13.883Z,15.63
2018-04-27T23:21:42.183Z,15.52
2018-04-27T23:24:09.810Z,15.59
2018-04-27T23:26:37.428Z,15.57
2018-04-27T23:29:05.222Z,15.56
2018-04-27T23:31:32.826Z,15.46
2018-04-27T23:34:00.422Z,15.48
2018-04-27T23:36:28.056Z,15.71
2018-04-27T23:38:55.643Z,15.45
2018-04-27T23:41:23.264Z,15.40
2018-04-27T23:43:50.858Z,15.35
2018-04-27T23:46:24.162Z,15.30
2018-04-27T23:48:51.775Z,15.35
2018-04-27T23:51:19.375Z,15.30
2018-04-27T23:53:48.679Z,15.27
2018-04-27T23:56:16.288Z,15.23
2018-04-27T23:58:43.901Z,15.27
